Bookmark and Share
Track history (hours):
 

Acadie

Last reported at 2014-Apr-16 15:34 UTC. Time now 2014-Apr-16 16:01 UTC.
Position N 47°43' W 003°21'.

Length 45 m.

Type: Passenger vessel. MMSI: 227002780.

NotesDate/timePositionNaut miles runAvg speedWind from/ knotsBaromVisibWave heightAir tempDewpointWater temp
2014-Apr-16 15:34N 47°43' W 003°21'6 6.0
2014-Apr-16 14:33N 47°39' W 003°27'7 3.1
2014-Apr-16 12:19N 47°44' W 003°21'7 9.1
2014-Apr-16 11:33N 47°39' W 003°27'2 2.2
2014-Apr-16 10:33N 47°40' W 003°25'2 0.9
2014-Apr-16 08:33N 47°42' W 003°23'1 1.0
2014-Apr-16 07:34N 47°41' W 003°24'2 1.2
2014-Apr-16 05:33N 47°43' W 003°22'5 5.2
2014-Apr-16 04:30N 47°39' W 003°27'4 0.4
2014-Apr-15 16:33N 47°42' W 003°23'1 1.2
2014-Apr-15 15:29N 47°43' W 003°22'5 5.5
2014-Apr-15 14:30N 47°39' W 003°27'0 0.0
2014-Apr-15 10:34N 47°39' W 003°27'1 0.3
2014-Apr-15 06:31N 47°40' W 003°26'3 0.2
2014-Apr-14 15:33N 47°42' W 003°23'4 0.8
2014-Apr-14 10:34N 47°39' W 003°27'0 0.0
2014-Apr-13 18:24N 47°39' W 003°27'7 5.8
2014-Apr-13 17:11N 47°44' W 003°21'711.0
2014-Apr-13 16:34N 47°39' W 003°27'4 4.4
2014-Apr-13 15:33N 47°42' W 003°22'1 1.1
2014-Apr-13 14:31N 47°43' W 003°22'6 1.0
2014-Apr-13 09:13N 47°39' W 003°27'6 3.3
2014-Apr-13 07:32N 47°43' W 003°22'1 0.1
2014-Apr-12 16:33N 47°42' W 003°23'1 1.2
2014-Apr-12 15:31N 47°43' W 003°22'5 5.0
2014-Apr-12 14:25N 47°39' W 003°27'0 0.0
2014-Apr-12 11:33N 47°39' W 003°27'2 0.5
2014-Apr-12 07:31N 47°40' W 003°25'4 1.8
2014-Apr-12 05:31N 47°43' W 003°22'5 4.7
2014-Apr-12 04:21N 47°39' W 003°27'0 0.0
2014-Apr-11 17:27N 47°39' W 003°27'4 1.4
2014-Apr-11 14:33N 47°41' W 003°22'3 3.0
2014-Apr-11 13:33N 47°39' W 003°25'6 5.3
2014-Apr-11 12:24N 47°44' W 003°21'2 0.7
2014-Apr-11 10:06N 47°43' W 003°22'510.1
2014-Apr-11 09:33N 47°39' W 003°27'  

Dump ship's entire track history

sailing weather and tide predictions

Acadie — FV7722 — position and weather